Time;durP1;ratioP1;P1;durP2;ratioP2;P2;SDS_P1;SDS_P2;PMS_P1;PMS_P2;Temp;Humidity;BMP_temperature;BMP_pressure;BME280_temperature;BME280_humidity;BME280_pressure;Samples;Min_cycle;Max_cycle;Signal;HPM_P1;HPM_P2
2023/12/18 00:00:13;;;;;;;9.63;5.10;;;;;;;-148.88;100.00;-17125.47;5091981;28;20028;-86
2023/12/18 00:02:39;;;;;;;10.35;5.13;;;;;;;-148.88;100.00;-17125.47;5093891;28;20020;-87
2023/12/18 00:05:04;;;;;;;10.55;5.32;;;;;;;-148.88;100.00;-17125.47;5093632;28;20035;-86
2023/12/18 00:07:30;;;;;;;11.98;5.47;;;;;;;-148.88;100.00;-17125.47;5094058;28;20028;-87
2023/12/18 00:09:55;;;;;;;11.23;5.10;;;;;;;-148.88;100.00;-17125.47;5092802;28;20032;-86
2023/12/18 00:12:23;;;;;;;12.63;5.70;;;;;;;-148.88;100.00;-17125.47;5095755;28;20027;-87
2023/12/18 00:14:49;;;;;;;13.02;5.57;;;;;;;-148.88;100.00;-17125.47;5096894;28;20028;-88
2023/12/18 00:17:14;;;;;;;16.05;6.45;;;;;;;-148.88;100.00;-17125.47;5096087;28;20020;-87
2023/12/18 00:19:48;;;;;;;14.07;5.70;;;;;;;-148.88;100.00;-17125.47;5097341;28;20508;-87
2023/12/18 00:22:14;;;;;;;;;;;;;;;-148.88;100.00;-17125.47;5098175;28;20020;-86
2023/12/18 00:24:39;;;;;;;13.45;4.95;;;;;;;-148.88;100.00;-17125.47;5097043;28;20003;-87
2023/12/18 00:27:04;;;;;;;10.30;4.97;;;;;;;-148.88;100.00;-17125.47;5096968;28;20466;-87
2023/12/18 00:29:33;;;;;;;10.32;5.72;;;;;;;-148.88;100.00;-17125.47;5096992;28;20024;-87
2023/12/18 00:31:58;;;;;;;10.73;4.95;;;;;;;-148.88;100.00;-17125.47;5095715;28;20032;-88
2023/12/18 00:34:26;;;;;;;15.90;5.90;;;;;;;-148.88;100.00;-17125.47;5095803;28;20027;-87
2023/12/18 00:36:51;;;;;;;11.60;5.22;;;;;;;-148.88;100.00;-17125.47;5095892;28;20111;-87
2023/12/18 00:39:25;;;;;;;13.27;5.80;;;;;;;-148.88;100.00;-17125.47;5097216;28;20052;-87
2023/12/18 00:41:51;;;;;;;;;;;;;;;-148.88;100.00;-17125.47;5097166;28;20077;-87
2023/12/18 00:44:29;;;;;;;13.68;5.90;;;;;;;-148.88;100.00;-17125.47;5096242;28;19908;-87
2023/12/18 00:46:58;;;;;;;16.08;6.25;;;;;;;-148.88;100.00;-17125.47;5098114;28;20024;-88
2023/12/18 00:49:32;;;;;;;18.05;6.88;;;;;;;-148.88;100.00;-17125.47;5095355;28;20145;-86
2023/12/18 00:51:57;;;;;;;14.15;5.82;;;;;;;-148.88;100.00;-17125.47;5096716;28;20501;-86
2023/12/18 00:54:22;;;;;;;24.65;7.53;;;;;;;-148.88;100.00;-17125.47;5095184;28;20032;-87
2023/12/18 00:56:53;;;;;;;14.57;5.80;;;;;;;-148.88;100.00;-17125.47;5096484;28;20098;-87
2023/12/18 00:59:18;;;;;;;20.10;7.90;;;;;;;-148.88;100.00;-17125.47;5095375;28;20052;-87
2023/12/18 01:01:51;;;;;;;20.67;7.72;;;;;;;-148.88;100.00;-17125.47;5095600;28;20027;-87
2023/12/18 01:04:16;;;;;;;18.00;7.53;;;;;;;-148.88;100.00;-17125.47;5096580;28;20109;-86
2023/12/18 01:06:42;;;;;;;17.90;7.30;;;;;;;-148.88;100.00;-17125.47;5096904;28;20024;-84
2023/12/18 01:09:08;;;;;;;16.85;8.05;;;;;;;-148.88;100.00;-17125.47;5095330;28;20035;-87
2023/12/18 01:11:36;;;;;;;21.55;7.18;;;;;;;-148.88;100.00;-17125.47;5094691;28;20039;-86
2023/12/18 01:14:05;;;;;;;18.10;7.15;;;;;;;-148.88;100.00;-17125.47;5096169;28;20025;-87
2023/12/18 01:16:31;;;;;;;22.25;7.30;;;;;;;-148.88;100.00;-17125.47;5095145;28;20383;-87
2023/12/18 01:18:56;;;;;;;14.07;6.90;;;;;;;-148.88;100.00;-17125.47;5096880;28;20098;-86
2023/12/18 01:21:21;;;;;;;20.30;8.90;;;;;;;-148.88;100.00;-17125.47;5095179;28;20024;-87
2023/12/18 01:23:53;;;;;;;18.05;7.88;;;;;;;-148.88;100.00;-17125.47;5094636;28;20030;-86
2023/12/18 01:26:18;;;;;;;14.60;7.68;;;;;;;-148.88;100.00;-17125.47;5094592;28;20531;-87
2023/12/18 01:28:49;;;;;;;15.15;7.43;;;;;;;-148.88;100.00;-17125.47;5095689;28;20031;-87
2023/12/18 01:31:24;;;;;;;20.88;8.88;;;;;;;-148.88;100.00;-17125.47;5095975;28;20016;-86
2023/12/18 01:33:53;;;;;;;19.08;7.57;;;;;;;-148.88;100.00;-17125.47;5095861;28;20026;-86
2023/12/18 01:36:18;;;;;;;15.63;7.82;;;;;;;-148.88;100.00;-17125.47;5094054;28;20038;-87
2023/12/18 01:38:54;;;;;;;16.27;7.35;;;;;;;-148.88;100.00;-17125.47;5095620;28;20114;-86
2023/12/18 01:41:19;;;;;;;22.20;8.93;;;;;;;-148.88;100.00;-17125.47;5095856;28;20095;-87
2023/12/18 01:43:45;;;;;;;19.38;8.52;;;;;;;-148.88;100.00;-17125.47;5095066;28;20070;-86
2023/12/18 01:46:18;;;;;;;17.85;7.43;;;;;;;-148.88;100.00;-17125.47;5094298;28;20020;-86
2023/12/18 01:48:44;;;;;;;16.05;7.15;;;;;;;-148.88;100.00;-17125.47;5094739;28;20031;-86
2023/12/18 01:51:11;;;;;;;14.73;7.60;;;;;;;-148.88;100.00;-17125.47;5095672;28;20475;-87
2023/12/18 01:53:45;;;;;;;17.25;7.78;;;;;;;-148.88;100.00;-17125.47;5095802;28;20051;-88
2023/12/18 01:56:13;;;;;;;16.52;7.95;;;;;;;-148.88;100.00;-17125.47;5096150;28;20019;-86
2023/12/18 01:58:43;;;;;;;20.15;8.50;;;;;;;-148.88;100.00;-17125.47;5094592;28;20540;-87
2023/12/18 02:01:09;;;;;;;19.23;7.70;;;;;;;-148.88;100.00;-17125.47;5095641;28;20024;-87
2023/12/18 02:03:40;;;;;;;27.98;9.75;;;;;;;-148.88;100.00;-17125.47;5093976;28;20024;-87
2023/12/18 02:06:06;;;;;;;15.85;7.78;;;;;;;-148.88;100.00;-17125.47;5095256;28;20031;-87
2023/12/18 02:08:32;;;;;;;18.40;7.70;;;;;;;-148.88;100.00;-17125.47;5093749;28;20020;-87
2023/12/18 02:10:59;;;;;;;15.73;8.13;;;;;;;-148.88;100.00;-17125.47;5093585;28;20111;-87
2023/12/18 02:13:24;;;;;;;15.30;7.90;;;;;;;-148.88;100.00;-17125.47;5093690;28;20024;-86
2023/12/18 02:15:58;;;;;;;21.08;8.60;;;;;;;-148.88;100.00;-17125.47;5093338;28;20385;-89
2023/12/18 02:18:23;;;;;;;18.38;7.93;;;;;;;-148.88;100.00;-17125.47;5093830;28;20024;-87
2023/12/18 02:20:49;;;;;;;19.50;8.73;;;;;;;-148.88;100.00;-17125.47;5095293;28;20034;-87
2023/12/18 02:23:14;;;;;;;20.00;9.73;;;;;;;-148.88;100.00;-17125.47;5093607;28;20455;-87
2023/12/18 02:25:40;;;;;;;16.42;9.35;;;;;;;-148.88;100.00;-17125.47;5095058;28;20020;-87
2023/12/18 02:28:10;;;;;;;16.85;8.63;;;;;;;-148.88;100.00;-17125.47;5094443;28;20077;-86
2023/12/18 02:30:36;;;;;;;18.48;7.82;;;;;;;-148.88;100.00;-17125.47;5094572;28;20485;-87
2023/12/18 02:33:02;;;;;;;20.20;8.18;;;;;;;-148.88;100.00;-17125.47;5094018;28;20101;-88
2023/12/18 02:35:27;;;;;;;18.02;8.30;;;;;;;-148.88;100.00;-17125.47;5095015;28;20270;-87
2023/12/18 02:37:56;;;;;;;19.05;9.15;;;;;;;-148.88;100.00;-17125.47;5093374;28;20028;-88
2023/12/18 02:40:26;;;;;;;22.27;8.48;;;;;;;-148.88;100.00;-17125.47;5093105;28;20035;-88
2023/12/18 02:42:52;;;;;;;18.48;8.88;;;;;;;-148.88;100.00;-17125.47;5093250;28;20016;-86
2023/12/18 02:45:18;;;;;;;21.48;9.45;;;;;;;-148.88;100.00;-17125.47;5093172;28;20032;-86
2023/12/18 02:47:44;;;;;;;16.30;8.60;;;;;;;-148.88;100.00;-17125.47;5093144;28;20032;-86
2023/12/18 02:50:12;;;;;;;19.75;8.40;;;;;;;-148.88;100.00;-17125.47;5093089;28;20020;-86
2023/12/18 02:52:38;;;;;;;19.60;9.30;;;;;;;-148.88;100.00;-17125.47;5094627;28;20027;-88
2023/12/18 02:55:03;;;;;;;20.90;9.50;;;;;;;-148.88;100.00;-17125.47;5094273;28;20073;-87
2023/12/18 02:57:29;;;;;;;19.63;7.95;;;;;;;-148.88;100.00;-17125.47;5094373;28;20500;-88
2023/12/18 02:59:54;;;;;;;22.85;8.55;;;;;;;-148.88;100.00;-17125.47;5094240;28;20398;-87
2023/12/18 03:02:26;;;;;;;21.65;9.68;;;;;;;-148.88;100.00;-17125.47;5092540;28;20073;-86
2023/12/18 03:04:52;;;;;;;15.32;7.47;;;;;;;-148.88;100.00;-17125.47;5094846;28;20103;-87
2023/12/18 03:07:35;;;;;;;25.77;9.63;;;;;;;-148.88;100.00;-17125.47;5093255;28;20020;-87
2023/12/18 03:10:01;;;;;;;23.80;9.65;;;;;;;-148.88;100.00;-17125.47;5093275;28;20088;-87
2023/12/18 03:12:31;;;;;;;20.55;8.40;;;;;;;-148.88;100.00;-17125.47;5092877;28;20052;-87
2023/12/18 03:14:57;;;;;;;21.00;9.05;;;;;;;-148.88;100.00;-17125.47;5093264;28;20052;-87
2023/12/18 03:17:22;;;;;;;17.42;8.13;;;;;;;-148.88;100.00;-17125.47;5094282;28;20111;-86
2023/12/18 03:19:50;;;;;;;25.05;10.05;;;;;;;-148.88;100.00;-17125.47;5093707;28;20032;-87
2023/12/18 03:22:19;;;;;;;23.60;9.65;;;;;;;-148.88;100.00;-17125.47;5093095;28;20120;-85
2023/12/18 03:24:44;;;;;;;18.77;8.18;;;;;;;-148.88;100.00;-17125.47;5093976;28;20063;-86
2023/12/18 03:27:09;;;;;;;20.15;9.50;;;;;;;-148.88;100.00;-17125.47;5092216;28;20413;-87
2023/12/18 03:29:35;;;;;;;21.55;9.55;;;;;;;-148.88;100.00;-17125.47;5092664;28;20023;-87
2023/12/18 03:32:04;;;;;;;22.83;8.93;;;;;;;-148.88;100.00;-17125.47;5092420;28;20096;-87
2023/12/18 03:34:30;;;;;;;21.27;9.45;;;;;;;-148.88;100.00;-17125.47;5093526;28;20552;-86
2023/12/18 03:36:55;;;;;;;21.17;9.40;;;;;;;-148.88;100.00;-17125.47;5092709;28;20478;-87
2023/12/18 03:39:21;;;;;;;26.40;9.50;;;;;;;-148.88;100.00;-17125.47;5092666;28;20023;-87
2023/12/18 03:41:46;;;;;;;17.95;8.70;;;;;;;-148.88;100.00;-17125.47;5094277;28;20099;-87
2023/12/18 03:44:12;;;;;;;24.65;10.00;;;;;;;-148.88;100.00;-17125.47;5093403;28;20017;-86
2023/12/18 03:46:40;;;;;;;24.70;8.60;;;;;;;-148.88;100.00;-17125.47;5096170;28;20027;-86
2023/12/18 03:49:05;;;;;;;22.15;9.57;;;;;;;-148.88;100.00;-17125.47;5097617;28;20024;-86
2023/12/18 03:51:33;;;;;;;29.50;9.55;;;;;;;-148.88;100.00;-17125.47;5098123;28;20047;-86
2023/12/18 03:53:59;;;;;;;24.60;10.50;;;;;;;-148.88;100.00;-17125.47;5097304;28;20389;-86
2023/12/18 03:56:24;;;;;;;23.48;9.05;;;;;;;-148.88;100.00;-17125.47;5097713;28;20020;-86
2023/12/18 03:58:49;;;;;;;19.50;8.35;;;;;;;-148.88;100.00;-17125.47;5097689;28;20024;-86
2023/12/18 04:01:15;;;;;;;23.45;8.85;;;;;;;-148.88;100.00;-17125.47;5097478;28;20377;-86
2023/12/18 04:03:40;;;;;;;21.80;9.57;;;;;;;-148.88;100.00;-17125.47;5097614;28;20146;-87
2023/12/18 04:06:09;;;;;;;22.38;9.60;;;;;;;-148.88;100.00;-17125.47;5096723;28;20024;-87
2023/12/18 04:08:40;;;;;;;20.92;8.85;;;;;;;-148.88;100.00;-17125.47;5096247;28;20038;-87
2023/12/18 04:11:22;;;;;;;26.08;9.45;;;;;;;-148.88;100.00;-17125.47;5097798;28;20020;-87
2023/12/18 04:13:51;;;;;;;25.02;9.52;;;;;;;-148.88;100.00;-17125.47;5097777;28;20016;-87
2023/12/18 04:16:17;;;;;;;19.63;9.40;;;;;;;-148.88;100.00;-17125.47;5096921;28;20083;-88
2023/12/18 04:18:51;;;;;;;19.00;8.25;;;;;;;-148.88;100.00;-17125.47;5095971;28;20023;-87
2023/12/18 04:21:17;;;;;;;21.95;8.70;;;;;;;-148.88;100.00;-17125.47;5098047;28;20031;-87
2023/12/18 04:23:42;;;;;;;25.90;10.10;;;;;;;-148.88;100.00;-17125.47;5097736;28;20020;-86
2023/12/18 04:26:08;;;;;;;27.98;11.68;;;;;;;-148.88;100.00;-17125.47;5095851;28;20472;-87
2023/12/18 04:28:34;;;;;;;24.95;10.52;;;;;;;-148.88;100.00;-17125.47;5095493;28;20016;-86
2023/12/18 04:31:00;;;;;;;23.05;10.27;;;;;;;-148.88;100.00;-17125.47;5096201;28;20089;-87
2023/12/18 04:33:25;;;;;;;21.52;9.65;;;;;;;-148.88;100.00;-17125.47;5095427;28;20028;-87
2023/12/18 04:35:51;;;;;;;25.63;9.07;;;;;;;-148.88;100.00;-17125.47;5095868;28;20026;-87
2023/12/18 04:38:19;;;;;;;28.67;9.98;;;;;;;-148.88;100.00;-17125.47;5096189;28;20043;-87
2023/12/18 04:40:44;;;;;;;28.45;9.48;;;;;;;-148.88;100.00;-17125.47;5097381;28;20028;-86
2023/12/18 04:43:10;;;;;;;21.75;8.90;;;;;;;-148.88;100.00;-17125.47;5095594;28;20093;-87
2023/12/18 04:45:38;;;;;;;27.17;10.02;;;;;;;-148.88;100.00;-17125.47;5095512;28;20028;-87
2023/12/18 04:48:07;;;;;;;28.88;10.23;;;;;;;-148.88;100.00;-17125.47;5096281;28;20016;-88
2023/12/18 04:50:32;;;;;;;20.75;10.20;;;;;;;-148.88;100.00;-17125.47;5096106;28;20053;-88
2023/12/18 04:52:57;;;;;;;22.77;9.85;;;;;;;-148.88;100.00;-17125.47;5095282;28;20036;-85
2023/12/18 04:55:31;;;;;;;26.75;9.63;;;;;;;-148.88;100.00;-17125.47;5096682;28;20062;-85
2023/12/18 04:57:57;;;;;;;25.52;10.77;;;;;;;-148.88;100.00;-17125.47;5093740;28;20081;-86
2023/12/18 05:00:22;;;;;;;27.55;10.55;;;;;;;-148.88;100.00;-17125.47;5095135;28;20024;-86
2023/12/18 05:02:53;;;;;;;23.15;9.43;;;;;;;-148.88;100.00;-17125.47;5096206;28;20055;-85
2023/12/18 05:05:19;;;;;;;33.67;10.35;;;;;;;-148.88;100.00;-17125.47;5096357;28;20039;-86
2023/12/18 05:07:49;;;;;;;23.20;10.63;;;;;;;-148.88;100.00;-17125.47;5096070;28;20028;-87
2023/12/18 05:10:17;;;;;;;21.65;9.43;;;;;;;-148.88;100.00;-17125.47;5096328;28;20027;-86
2023/12/18 05:12:43;;;;;;;29.85;10.55;;;;;;;-148.88;100.00;-17125.47;5095298;28;20042;-85
2023/12/18 05:15:08;;;;;;;29.70;10.25;;;;;;;-148.88;100.00;-17125.47;5094784;28;20114;-85
2023/12/18 05:17:34;;;;;;;27.42;10.98;;;;;;;-148.88;100.00;-17125.47;5095982;28;20028;-88
2023/12/18 05:19:59;;;;;;;25.55;11.07;;;;;;;-148.88;100.00;-17125.47;5096190;28;20032;-87
2023/12/18 05:22:27;;;;;;;34.10;11.50;;;;;;;-148.88;100.00;-17125.47;5096334;28;20099;-87
2023/12/18 05:24:53;;;;;;;26.35;10.15;;;;;;;-148.88;100.00;-17125.47;5095747;28;20471;-88
2023/12/18 05:27:20;;;;;;;31.77;11.05;;;;;;;-148.88;100.00;-17125.47;5096634;28;20039;-88
2023/12/18 05:29:45;;;;;;;25.23;10.43;;;;;;;-148.88;100.00;-17125.47;5094951;28;20028;-87
2023/12/18 05:32:11;;;;;;;25.65;10.15;;;;;;;-148.88;100.00;-17125.47;5095721;28;20036;-87
2023/12/18 05:34:36;;;;;;;22.95;10.65;;;;;;;-148.88;100.00;-17125.47;5094052;28;20023;-88
2023/12/18 05:37:02;;;;;;;25.30;9.90;;;;;;;-148.88;100.00;-17125.47;5096300;28;20111;-87
2023/12/18 05:39:27;;;;;;;24.70;10.20;;;;;;;-148.88;100.00;-17125.47;5094446;28;20020;-86
2023/12/18 05:41:53;;;;;;;24.90;10.38;;;;;;;-148.88;100.00;-17125.47;5094124;28;20494;-87
2023/12/18 05:44:18;;;;;;;28.98;10.43;;;;;;;-148.88;100.00;-17125.47;5095945;28;20034;-86
2023/12/18 05:46:43;;;;;;;20.83;10.10;;;;;;;-148.88;100.00;-17125.47;5094352;28;20016;-87
2023/12/18 05:49:09;;;;;;;24.73;11.00;;;;;;;-148.88;100.00;-17125.47;5095510;28;20187;-86
2023/12/18 05:51:34;;;;;;;24.77;10.80;;;;;;;-148.88;100.00;-17125.47;5094300;28;20371;-86
2023/12/18 05:54:00;;;;;;;28.23;10.38;;;;;;;-148.88;100.00;-17125.47;5095698;28;20024;-87
2023/12/18 05:56:26;;;;;;;31.30;10.68;;;;;;;-148.88;100.00;-17125.47;5092523;28;20033;-87
2023/12/18 05:58:52;;;;;;;30.50;11.68;;;;;;;-148.88;100.00;-17125.47;5095462;28;20109;-88
2023/12/18 06:01:19;;;;;;;29.80;11.70;;;;;;;-148.88;100.00;-17125.47;5096881;28;20126;-87
2023/12/18 06:03:47;;;;;;;22.55;10.55;;;;;;;-148.88;100.00;-17125.47;5094877;28;20020;-85
2023/12/18 06:06:15;;;;;;;29.50;10.65;;;;;;;-148.88;100.00;-17125.47;5095139;28;20028;-86
2023/12/18 06:08:40;;;;;;;32.83;11.05;;;;;;;-148.88;100.00;-17125.47;5094401;28;20023;-87
2023/12/18 06:11:09;;;;;;;26.50;11.10;;;;;;;-148.88;100.00;-17125.47;5095108;28;20061;-86
2023/12/18 06:13:39;;;;;;;37.42;12.60;;;;;;;-148.88;100.00;-17125.47;5093923;28;20028;-86
2023/12/18 06:16:04;;;;;;;28.35;11.90;;;;;;;-148.88;100.00;-17125.47;5095411;28;20402;-86
2023/12/18 06:18:30;;;;;;;27.42;11.32;;;;;;;-148.88;100.00;-17125.47;5094734;28;20491;-87
2023/12/18 06:21:03;;;;;;;32.88;12.15;;;;;;;-148.88;100.00;-17125.47;5093609;28;20194;-87
2023/12/18 06:23:28;;;;;;;33.17;12.48;;;;;;;-148.88;100.00;-17125.47;5094393;28;20107;-88
2023/12/18 06:25:54;;;;;;;29.90;11.43;;;;;;;-148.88;100.00;-17125.47;5094681;28;20043;-86
2023/12/18 06:28:19;;;;;;;27.98;12.00;;;;;;;-148.88;100.00;-17125.47;5093178;28;20028;-87
2023/12/18 06:30:45;;;;;;;29.70;12.10;;;;;;;-148.88;100.00;-17125.47;5093845;28;20028;-85
2023/12/18 06:33:10;;;;;;;33.15;13.10;;;;;;;-148.88;100.00;-17125.47;5095368;28;20028;-86
2023/12/18 06:35:35;;;;;;;29.52;12.93;;;;;;;-148.88;100.00;-17125.47;5095311;28;20020;-86
2023/12/18 06:38:01;;;;;;;37.03;13.73;;;;;;;-148.88;100.00;-17125.47;5093681;28;20398;-87
2023/12/18 06:40:26;;;;;;;31.30;13.13;;;;;;;-148.88;100.00;-17125.47;5094583;28;20027;-86
2023/12/18 06:42:51;;;;;;;33.55;12.98;;;;;;;-148.88;100.00;-17125.47;5093300;28;20012;-87
2023/12/18 06:45:17;;;;;;;34.70;13.55;;;;;;;-148.88;100.00;-17125.47;5093119;28;20117;-85
2023/12/18 06:47:42;;;;;;;29.77;12.75;;;;;;;-148.88;100.00;-17125.47;5092735;28;20020;-82
2023/12/18 06:50:11;;;;;;;34.85;13.85;;;;;;;-148.88;100.00;-17125.47;5093431;28;20035;-86
2023/12/18 06:52:40;;;;;;;33.83;12.98;;;;;;;-148.88;100.00;-17125.47;5093635;28;20020;-87
2023/12/18 06:55:06;;;;;;;34.05;13.55;;;;;;;-148.88;100.00;-17125.47;5094104;28;20032;-86
2023/12/18 06:57:34;;;;;;;34.10;14.38;;;;;;;-148.88;100.00;-17125.47;5092998;28;20026;-86
2023/12/18 07:00:00;;;;;;;34.50;13.40;;;;;;;-148.88;100.00;-17125.47;5093507;28;20471;-86
2023/12/18 07:02:26;;;;;;;38.10;13.77;;;;;;;-148.88;100.00;-17125.47;5092210;28;20084;-86
2023/12/18 07:04:54;;;;;;;30.73;12.63;;;;;;;-148.88;100.00;-17125.47;5092605;28;20485;-88
2023/12/18 07:07:20;;;;;;;34.17;13.35;;;;;;;-148.88;100.00;-17125.47;5094119;28;20080;-88
2023/12/18 07:09:45;;;;;;;40.90;15.50;;;;;;;-148.88;100.00;-17125.47;5092327;28;20123;-87
2023/12/18 07:12:14;;;;;;;33.40;14.73;;;;;;;-148.88;100.00;-17125.47;5094092;28;20026;-87
2023/12/18 07:14:42;;;;;;;33.83;13.82;;;;;;;-148.88;100.00;-17125.47;5092220;28;20028;-87
2023/12/18 07:17:07;;;;;;;38.10;14.25;;;;;;;-148.88;100.00;-17125.47;5091787;28;20032;-87
2023/12/18 07:19:33;;;;;;;40.30;13.50;;;;;;;-148.88;100.00;-17125.47;5092200;28;20043;-86
2023/12/18 07:22:01;;;;;;;43.58;14.45;;;;;;;-148.88;100.00;-17125.47;5091672;28;20030;-87
2023/12/18 07:24:26;;;;;;;36.92;15.07;;;;;;;-148.88;100.00;-17125.47;5093553;28;20035;-87
2023/12/18 07:26:53;;;;;;;35.42;15.02;;;;;;;-148.88;100.00;-17125.47;5092386;28;20024;-87
2023/12/18 07:29:18;;;;;;;37.85;14.27;;;;;;;-148.88;100.00;-17125.47;5092099;28;20028;-88
2023/12/18 07:31:49;;;;;;;41.15;14.95;;;;;;;-148.88;100.00;-17125.47;5092906;28;20024;-89
2023/12/18 07:34:14;;;;;;;40.95;14.75;;;;;;;-148.88;100.00;-17125.47;5093389;28;20401;-87
2023/12/18 07:36:40;;;;;;;35.85;14.15;;;;;;;-148.88;100.00;-17125.47;5093456;28;20072;-89
2023/12/18 07:39:14;;;;;;;43.90;14.93;;;;;;;-148.88;100.00;-17125.47;5091579;28;20035;-88
2023/12/18 07:41:39;;;;;;;;;;;;;;;-148.88;100.00;-17125.47;5093756;28;20035;-89
2023/12/18 07:44:04;;;;;;;39.88;14.55;;;;;;;-148.88;100.00;-17125.47;5093637;28;20285;-88
2023/12/18 07:46:35;;;;;;;37.28;14.90;;;;;;;-148.88;100.00;-17125.47;5092635;28;20024;-88
2023/12/18 07:49:03;;;;;;;41.63;14.48;;;;;;;-148.88;100.00;-17125.47;5092575;28;20016;-89
2023/12/18 07:51:29;;;;;;;42.63;15.40;;;;;;;-148.88;100.00;-17125.47;5092489;28;20035;-85
2023/12/18 07:53:54;;;;;;;39.63;15.07;;;;;;;-148.88;100.00;-17125.47;5091628;28;20114;-86
2023/12/18 07:56:19;;;;;;;41.17;15.85;;;;;;;-148.88;100.00;-17125.47;5093103;28;20024;-87
2023/12/18 07:58:45;;;;;;;46.53;17.58;;;;;;;-148.88;100.00;-17125.47;5093269;28;20032;-86
2023/12/18 08:01:10;;;;;;;44.28;18.20;;;;;;;-148.88;100.00;-17125.47;5091703;28;20119;-85
2023/12/18 08:03:36;;;;;;;45.38;16.80;;;;;;;-148.88;100.00;-17125.47;5092944;28;20098;-86
2023/12/18 08:06:01;;;;;;;42.47;16.38;;;;;;;-148.88;100.00;-17125.47;5091687;28;20492;-87
2023/12/18 08:08:27;;;;;;;40.08;15.77;;;;;;;-148.88;100.00;-17125.47;5092784;28;20036;-86
2023/12/18 08:10:53;;;;;;;43.58;17.45;;;;;;;-148.88;100.00;-17125.47;5091434;28;20020;-86
2023/12/18 08:13:21;;;;;;;45.15;17.83;;;;;;;-148.88;100.00;-17125.47;5091421;28;20059;-87
2023/12/18 08:15:46;;;;;;;44.17;17.23;;;;;;;-148.88;100.00;-17125.47;5091960;28;20020;-87
2023/12/18 08:18:12;;;;;;;52.08;17.17;;;;;;;-148.88;100.00;-17125.47;5091359;28;20027;-85
2023/12/18 08:20:37;;;;;;;47.40;17.38;;;;;;;-148.88;100.00;-17125.47;5093089;28;20024;-87
2023/12/18 08:23:03;;;;;;;41.53;17.73;;;;;;;-148.88;100.00;-17125.47;5091502;28;20099;-86
2023/12/18 08:25:29;;;;;;;45.85;17.15;;;;;;;-148.88;100.00;-17125.47;5091580;28;20039;-88
2023/12/18 08:27:54;;;;;;;48.72;16.92;;;;;;;-148.88;100.00;-17125.47;5091547;28;20028;-87
2023/12/18 08:30:21;;;;;;;46.10;16.92;;;;;;;-148.88;100.00;-17125.47;5091621;28;20538;-85
2023/12/18 08:32:46;;;;;;;48.58;16.52;;;;;;;-148.88;100.00;-17125.47;5093666;28;20135;-86
2023/12/18 08:35:12;;;;;;;43.80;16.50;;;;;;;-148.88;100.00;-17125.47;5095138;28;20028;-86
2023/12/18 08:37:38;;;;;;;45.55;16.10;;;;;;;-148.88;100.00;-17125.47;5096222;28;20111;-86
2023/12/18 08:40:07;;;;;;;39.38;16.27;;;;;;;-148.88;100.00;-17125.47;5094913;28;20145;-86
2023/12/18 08:42:32;;;;;;;42.72;15.93;;;;;;;-148.88;100.00;-17125.47;5094984;28;20055;-87
2023/12/18 08:44:58;;;;;;;40.85;16.20;;;;;;;-148.88;100.00;-17125.47;5095967;28;20108;-85
2023/12/18 08:47:26;;;;;;;44.25;16.05;;;;;;;-148.88;100.00;-17125.47;5096421;28;20394;-85
2023/12/18 08:49:52;;;;;;;49.55;15.98;;;;;;;-148.88;100.00;-17125.47;5094936;28;20030;-87
2023/12/18 08:52:17;;;;;;;43.20;16.95;;;;;;;-148.88;100.00;-17125.47;5094959;28;20031;-86
2023/12/18 08:54:43;;;;;;;42.20;16.15;;;;;;;-148.88;100.00;-17125.47;5094890;28;20398;-85
2023/12/18 08:57:16;;;;;;;42.08;16.08;;;;;;;-148.88;100.00;-17125.47;5095582;28;20134;-85
2023/12/18 08:59:51;;;;;;;50.10;17.23;;;;;;;-148.88;100.00;-17125.47;5095338;28;20035;-84
2023/12/18 09:02:23;;;;;;;44.58;16.98;;;;;;;-148.88;100.00;-17125.47;5096385;28;20051;-85
2023/12/18 09:04:51;;;;;;;40.97;16.42;;;;;;;-148.88;100.00;-17125.47;5094996;28;20031;-87
2023/12/18 09:07:17;;;;;;;44.03;16.45;;;;;;;-148.88;100.00;-17125.47;5094524;28;20107;-87
2023/12/18 09:09:45;;;;;;;49.28;17.63;;;;;;;-148.88;100.00;-17125.47;5094666;28;20461;-88
2023/12/18 09:12:10;;;;;;;49.05;17.42;;;;;;;-148.88;100.00;-17125.47;5095934;28;20027;-87
2023/12/18 09:14:50;;;;;;;47.13;16.52;;;;;;;-148.88;100.00;-17125.47;5095512;28;20402;-87
2023/12/18 09:17:18;;;;;;;46.30;17.50;;;;;;;-148.88;100.00;-17125.47;5095740;28;20075;-87
2023/12/18 09:19:55;;;;;;;40.88;16.83;;;;;;;-148.88;100.00;-17125.47;5095821;28;20138;-87
2023/12/18 09:22:27;;;;;;;44.78;16.25;;;;;;;-148.88;100.00;-17125.47;5094908;28;20104;-87
2023/12/18 09:24:52;;;;;;;48.90;16.58;;;;;;;-148.88;100.00;-17125.47;5094073;28;20058;-87
2023/12/18 09:27:18;;;;;;;36.10;14.63;;;;;;;-148.88;100.00;-17125.47;5095835;28;20031;-87
2023/12/18 09:29:43;;;;;;;39.42;14.90;;;;;;;-148.88;100.00;-17125.47;5095696;28;20024;-87
2023/12/18 09:32:16;;;;;;;40.38;15.02;;;;;;;-148.88;100.00;-17125.47;5094792;28;20028;-89
2023/12/18 09:34:42;;;;;;;42.05;15.57;;;;;;;-148.88;100.00;-17125.47;5093886;28;20399;-87
2023/12/18 09:37:07;;;;;;;44.03;15.40;;;;;;;-148.88;100.00;-17125.47;5094689;28;20035;-87
2023/12/18 09:39:42;;;;;;;34.85;14.30;;;;;;;-148.88;100.00;-17125.47;5095373;28;20024;-87
2023/12/18 09:42:10;;;;;;;39.95;14.45;;;;;;;-148.88;100.00;-17125.47;5095835;28;20467;-87
2023/12/18 09:44:43;;;;;;;37.38;15.70;;;;;;;-148.88;100.00;-17125.47;5094366;28;20169;-86
2023/12/18 09:47:09;;;;;;;44.38;15.35;;;;;;;-148.88;100.00;-17125.47;5095299;28;20043;-87
2023/12/18 09:49:34;;;;;;;40.67;16.85;;;;;;;-148.88;100.00;-17125.47;5093847;28;20363;-86
2023/12/18 09:52:11;;;;;;;39.50;16.33;;;;;;;-148.88;100.00;-17125.47;5095291;28;20042;-87
2023/12/18 09:54:40;;;;;;;47.33;16.40;;;;;;;-148.88;100.00;-17125.47;5094155;28;20024;-88
2023/12/18 09:57:07;;;;;;;40.88;15.50;;;;;;;-148.88;100.00;-17125.47;5093637;28;20483;-87
2023/12/18 09:59:41;;;;;;;41.72;17.48;;;;;;;-148.88;100.00;-17125.47;5093791;28;20051;-87
2023/12/18 10:02:17;;;;;;;43.45;16.35;;;;;;;-148.88;100.00;-17125.47;5093886;28;20110;-86
2023/12/18 10:04:45;;;;;;;41.33;14.75;;;;;;;-148.88;100.00;-17125.47;5093580;28;20194;-87
2023/12/18 10:07:11;;;;;;;45.85;16.80;;;;;;;-148.88;100.00;-17125.47;5094838;28;20020;-88
2023/12/18 10:09:36;;;;;;;35.15;16.27;;;;;;;-148.88;100.00;-17125.47;5095343;28;20111;-87
2023/12/18 10:12:13;;;;;;;41.75;15.75;;;;;;;-148.88;100.00;-17125.47;5094524;28;20020;-88
2023/12/18 10:14:39;;;;;;;42.55;15.88;;;;;;;-148.88;100.00;-17125.47;5094387;28;20035;-86
2023/12/18 10:17:11;;;;;;;42.28;16.38;;;;;;;-148.88;100.00;-17125.47;5094650;28;20024;-86
2023/12/18 10:19:50;;;;;;;45.55;16.30;;;;;;;-148.88;100.00;-17125.47;5093786;28;20020;-87
2023/12/18 10:22:21;;;;;;;41.10;15.38;;;;;;;-148.88;100.00;-17125.47;5094106;28;20024;-86
2023/12/18 10:24:49;;;;;;;44.47;15.55;;;;;;;-148.88;100.00;-17125.47;5094018;28;20027;-86
2023/12/18 10:27:33;;;;;;;36.60;14.73;;;;;;;-148.88;100.00;-17125.47;5093438;28;20410;-87
2023/12/18 10:30:02;;;;;;;36.72;13.52;;;;;;;-148.88;100.00;-17125.47;5092891;28;20515;-86
2023/12/18 10:32:28;;;;;;;39.88;14.48;;;;;;;-148.88;100.00;-17125.47;5092694;28;20473;-86
2023/12/18 10:35:04;;;;;;;42.75;15.35;;;;;;;-148.88;100.00;-17125.47;5094097;28;20024;-86
2023/12/18 10:37:45;;;;;;;39.30;15.13;;;;;;;-148.88;100.00;-17125.47;5094138;28;20099;-87
2023/12/18 10:40:12;;;;;;;40.63;15.13;;;;;;;-148.88;100.00;-17125.47;5093031;28;20020;-88
2023/12/18 10:42:37;;;;;;;35.70;14.10;;;;;;;-148.88;100.00;-17125.47;5095223;28;20056;-88
2023/12/18 10:45:06;;;;;;;39.60;14.82;;;;;;;-148.88;100.00;-17125.47;5094183;28;20109;-86
2023/12/18 10:47:37;;;;;;;34.72;13.63;;;;;;;-148.88;100.00;-17125.47;5094075;28;20142;-87
2023/12/18 10:50:12;;;;;;;42.45;14.82;;;;;;;-148.88;100.00;-17125.47;5093219;28;20196;-87